createdAt,value
2022-10-18T00:04:24.467Z,2.90
2022-10-18T00:09:26.480Z,3.20
2022-10-18T00:14:29.921Z,3.30
2022-10-18T00:19:31.994Z,2.90
2022-10-18T00:24:33.891Z,3.00
2022-10-18T00:29:37.520Z,3.00
2022-10-18T00:34:40.095Z,3.20
2022-10-18T00:39:42.217Z,3.30
2022-10-18T00:45:14.796Z,3.33
2022-10-18T00:50:17.389Z,3.23
2022-10-18T00:55:20.032Z,3.37
2022-10-18T01:00:23.625Z,3.00
2022-10-18T01:05:26.526Z,3.00
2022-10-18T01:10:37.873Z,3.20
2022-10-18T01:15:54.648Z,3.03
2022-10-18T01:21:10.587Z,3.10
2022-10-18T01:26:26.765Z,3.00
2022-10-18T01:31:35.080Z,3.37
2022-10-18T01:36:41.435Z,3.17
2022-10-18T01:41:45.741Z,3.60
2022-10-18T01:46:51.429Z,3.90
2022-10-18T01:51:53.776Z,5.80
2022-10-18T01:57:00.555Z,5.60
2022-10-18T02:02:15.840Z,4.90
2022-10-18T02:07:26.993Z,4.20
2022-10-18T02:12:32.568Z,4.53
2022-10-18T02:17:37.283Z,4.60
2022-10-18T02:22:40.030Z,4.33
2022-10-18T02:27:42.968Z,5.80
2022-10-18T02:32:49.771Z,6.07
2022-10-18T02:37:54.001Z,6.00
2022-10-18T02:42:58.123Z,6.83
2022-10-18T02:48:01.801Z,6.37
2022-10-18T02:53:03.749Z,5.70
2022-10-18T02:58:05.811Z,6.10
2022-10-18T03:03:09.318Z,6.90
2022-10-18T03:08:10.968Z,6.90
2022-10-18T03:13:13.132Z,6.63
2022-10-18T03:18:16.750Z,6.87
2022-10-18T03:23:18.781Z,7.00
2022-10-18T03:28:21.279Z,6.00
2022-10-18T03:33:24.739Z,6.67
2022-10-18T03:38:27.139Z,5.60
2022-10-18T03:43:28.923Z,6.03
2022-10-18T03:48:32.003Z,5.47
2022-10-18T03:53:34.306Z,6.17
2022-10-18T03:58:36.244Z,5.57
2022-10-18T04:03:39.276Z,6.87
2022-10-18T04:08:41.061Z,6.17
2022-10-18T04:13:43.078Z,6.27
2022-10-18T04:18:46.635Z,5.50
2022-10-18T04:23:48.849Z,6.00
2022-10-18T04:28:51.031Z,6.17
2022-10-18T04:33:54.993Z,5.20
2022-10-18T04:38:57.273Z,5.67
2022-10-18T04:43:58.931Z,5.30
2022-10-18T04:49:02.293Z,5.53
2022-10-18T04:54:04.388Z,5.50
2022-10-18T04:59:06.354Z,5.60
2022-10-18T05:04:09.600Z,5.67
2022-10-18T05:09:11.827Z,4.90
2022-10-18T05:14:13.943Z,5.80
2022-10-18T05:19:17.505Z,4.97
2022-10-18T05:24:21.054Z,6.30
2022-10-18T05:29:25.644Z,6.00
2022-10-18T05:34:28.798Z,5.73
2022-10-18T05:39:30.891Z,7.03
2022-10-18T05:44:33.092Z,5.97
2022-10-18T05:49:36.187Z,6.00
2022-10-18T05:54:38.546Z,6.23
2022-10-18T05:59:40.531Z,5.63
2022-10-18T06:04:43.530Z,6.03
2022-10-18T06:09:45.178Z,7.20
2022-10-18T06:14:47.026Z,6.83
2022-10-18T06:19:50.454Z,6.60
2022-10-18T06:24:57.124Z,7.03
2022-10-18T06:29:59.453Z,5.50
2022-10-18T06:35:02.941Z,6.33
2022-10-18T06:40:06.524Z,6.03
2022-10-18T06:45:09.733Z,5.83
2022-10-18T06:50:13.037Z,5.63
2022-10-18T06:55:15.409Z,6.60
2022-10-18T07:00:17.338Z,6.97
2022-10-18T07:05:20.821Z,5.83
2022-10-18T07:10:23.002Z,7.27
2022-10-18T07:15:24.856Z,6.60
2022-10-18T07:20:27.941Z,6.17
2022-10-18T07:25:31.074Z,6.53
2022-10-18T07:30:33.749Z,7.13
2022-10-18T07:35:37.134Z,6.70
2022-10-18T07:40:39.880Z,6.57
2022-10-18T07:45:42.222Z,7.33
2022-10-18T07:50:45.728Z,6.07
2022-10-18T07:55:48.149Z,7.87
2022-10-18T08:00:50.161Z,6.43
2022-10-18T08:05:54.846Z,6.37
2022-10-18T08:11:02.388Z,6.97
2022-10-18T08:16:06.424Z,6.90
2022-10-18T08:21:11.875Z,6.10
2022-10-18T08:26:16.737Z,6.27
2022-10-18T08:31:19.226Z,4.90
2022-10-18T08:36:22.584Z,5.27
2022-10-18T08:41:43.046Z,5.20
2022-10-18T08:46:47.365Z,5.23
2022-10-18T08:51:52.037Z,5.17
2022-10-18T08:56:59.641Z,6.00
2022-10-18T09:02:15.746Z,5.27
2022-10-18T09:07:33.336Z,4.43
2022-10-18T09:12:52.835Z,5.13
2022-10-18T09:18:08.784Z,4.53
2022-10-18T09:23:20.546Z,5.93
2022-10-18T09:28:41.337Z,5.30
2022-10-18T09:33:51.048Z,6.30
2022-10-18T09:39:00.542Z,6.33
2022-10-18T09:44:11.037Z,7.17
2022-10-18T09:49:19.045Z,5.73
2022-10-18T09:54:29.586Z,6.03
2022-10-18T09:59:40.500Z,6.30
2022-10-18T10:04:43.153Z,6.50
2022-10-18T10:09:48.689Z,5.90
2022-10-18T10:14:50.665Z,6.77
2022-10-18T10:19:59.898Z,5.83
2022-10-18T10:25:04.082Z,5.50
2022-10-18T10:30:22.649Z,5.13
2022-10-18T10:35:41.570Z,5.03
2022-10-18T10:40:54.254Z,5.13
2022-10-18T10:45:59.930Z,5.20
2022-10-18T10:51:06.033Z,5.83
2022-10-18T10:56:18.419Z,5.37
2022-10-18T11:01:38.126Z,5.03
2022-10-18T11:06:47.483Z,5.13
2022-10-18T11:12:01.203Z,4.50
2022-10-18T11:17:14.994Z,4.57
2022-10-18T11:22:22.822Z,4.60
2022-10-18T11:27:31.573Z,4.03
2022-10-18T11:32:41.897Z,3.53
2022-10-18T11:37:58.479Z,3.80
2022-10-18T11:43:11.116Z,3.37
2022-10-18T11:48:32.522Z,3.10
2022-10-18T11:53:46.172Z,3.50
2022-10-18T11:59:19.081Z,3.60
2022-10-18T12:04:26.104Z,3.57
2022-10-18T12:09:32.742Z,3.53
2022-10-18T12:14:40.523Z,4.20
2022-10-18T12:19:43.480Z,4.30
2022-10-18T12:24:45.180Z,4.63
2022-10-18T12:29:54.798Z,4.10
2022-10-18T12:35:00.505Z,3.97
2022-10-18T12:40:11.119Z,3.67
2022-10-18T12:45:25.403Z,4.03
2022-10-18T12:50:31.903Z,4.00
2022-10-18T12:55:36.116Z,4.40
2022-10-18T13:01:09.553Z,3.93
2022-10-18T13:06:11.658Z,4.33
2022-10-18T13:11:37.906Z,4.70
2022-10-18T13:16:48.648Z,4.97
2022-10-18T13:22:06.760Z,4.23
2022-10-18T13:27:42.374Z,4.60
2022-10-18T13:32:53.766Z,4.60
2022-10-18T13:37:59.910Z,5.17
2022-10-18T13:43:52.735Z,6.13
2022-10-18T13:49:00.636Z,5.07
2022-10-18T13:54:13.967Z,5.67
2022-10-18T13:59:37.827Z,5.10
2022-10-18T14:05:23.698Z,5.43
2022-10-18T14:10:44.147Z,5.03
2022-10-18T14:16:01.886Z,4.57
2022-10-18T14:21:14.198Z,4.67
2022-10-18T14:26:20.257Z,4.60
2022-10-18T14:31:22.038Z,4.67
2022-10-18T14:36:26.946Z,4.93
2022-10-18T14:41:30.291Z,4.60
2022-10-18T14:46:32.291Z,4.60
2022-10-18T14:51:36.963Z,4.33
2022-10-18T14:56:41.456Z,5.07
2022-10-18T15:01:53.793Z,5.47
2022-10-18T15:06:57.650Z,5.63
2022-10-18T15:12:01.209Z,4.70
2022-10-18T15:17:08.121Z,5.43
2022-10-18T15:22:31.789Z,4.93
2022-10-18T15:27:37.570Z,4.90
2022-10-18T15:32:48.121Z,5.37
2022-10-18T15:37:52.419Z,5.90
2022-10-18T15:42:56.549Z,5.50
2022-10-18T15:48:01.456Z,5.80
2022-10-18T15:53:23.951Z,5.30
2022-10-18T15:58:27.306Z,7.07
2022-10-18T16:03:29.046Z,7.50
2022-10-18T16:08:32.414Z,6.57
2022-10-18T16:13:34.382Z,7.90
2022-10-18T16:18:36.116Z,6.80
2022-10-18T16:23:39.316Z,7.40
2022-10-18T16:28:42.315Z,7.30
2022-10-18T16:33:44.343Z,6.23
2022-10-18T16:38:48.906Z,6.03
2022-10-18T16:43:51.574Z,6.13
2022-10-18T16:48:54.656Z,6.70
2022-10-18T16:53:58.047Z,7.13
2022-10-18T16:59:01.046Z,6.77
2022-10-18T17:04:03.072Z,7.00
2022-10-18T17:09:06.485Z,8.33
2022-10-18T17:14:09.009Z,7.50
2022-10-18T17:19:11.710Z,8.30
2022-10-18T17:24:14.893Z,6.40
2022-10-18T17:29:16.747Z,7.47
2022-10-18T17:34:21.228Z,5.87
2022-10-18T17:39:24.842Z,7.10
2022-10-18T17:44:27.221Z,8.97
2022-10-18T17:49:29.423Z,8.27
2022-10-18T17:54:44.763Z,7.80
2022-10-18T17:59:49.621Z,6.37
2022-10-18T18:04:54.462Z,6.73
2022-10-18T18:09:58.504Z,5.03
2022-10-18T18:15:00.773Z,5.27
2022-10-18T18:20:02.965Z,4.80
2022-10-18T18:25:07.352Z,5.13
2022-10-18T18:30:10.035Z,6.13
2022-10-18T18:35:12.079Z,5.57
2022-10-18T18:40:15.952Z,5.90
2022-10-18T18:45:18.061Z,5.50
2022-10-18T18:50:20.357Z,6.10
2022-10-18T18:55:24.298Z,6.13
2022-10-18T19:00:26.461Z,5.67
2022-10-18T19:05:28.842Z,7.20
2022-10-18T19:10:32.799Z,7.43
2022-10-18T19:15:35.229Z,6.90
2022-10-18T19:20:36.986Z,8.20
2022-10-18T19:25:40.091Z,6.60
2022-10-18T19:30:41.768Z,7.10
2022-10-18T19:35:43.400Z,7.57
2022-10-18T19:40:51.564Z,7.17
2022-10-18T19:45:55.570Z,6.50
2022-10-18T19:51:03.021Z,6.00
2022-10-18T19:56:09.734Z,6.90
2022-10-18T20:01:11.678Z,6.67
2022-10-18T20:06:14.396Z,6.67
2022-10-18T20:11:19.364Z,7.10
2022-10-18T20:16:27.878Z,5.93
2022-10-18T20:21:31.872Z,6.60
2022-10-18T20:26:35.007Z,6.20
2022-10-18T20:31:36.735Z,5.60
2022-10-18T20:36:39.208Z,6.07
2022-10-18T20:41:42.592Z,6.10
2022-10-18T20:46:44.849Z,7.07
2022-10-18T20:51:46.526Z,5.87
2022-10-18T20:56:49.830Z,5.83
2022-10-18T21:01:51.952Z,5.77
2022-10-18T21:06:54.056Z,6.40
2022-10-18T21:11:57.832Z,5.13
2022-10-18T21:16:59.944Z,5.57
2022-10-18T21:22:01.939Z,5.60
2022-10-18T21:27:05.138Z,5.93
2022-10-18T21:32:07.367Z,5.13
2022-10-18T21:37:09.361Z,4.97
2022-10-18T21:42:12.886Z,4.83
2022-10-18T21:47:14.990Z,4.53
2022-10-18T21:52:17.193Z,5.00
2022-10-18T21:57:20.631Z,4.70
2022-10-18T22:02:22.711Z,4.80
2022-10-18T22:07:24.845Z,4.97
2022-10-18T22:12:27.955Z,4.00
2022-10-18T22:17:30.364Z,5.27
2022-10-18T22:22:32.588Z,4.33
2022-10-18T22:27:36.330Z,4.00
2022-10-18T22:32:38.657Z,4.83
2022-10-18T22:37:40.745Z,4.53
2022-10-18T22:42:44.126Z,4.10
2022-10-18T22:47:46.176Z,3.90
2022-10-18T22:52:49.697Z,3.80
2022-10-18T22:57:56.664Z,4.43
2022-10-18T23:02:58.419Z,4.50
2022-10-18T23:08:00.574Z,4.13
2022-10-18T23:13:04.326Z,4.00
2022-10-18T23:18:06.970Z,4.00
2022-10-18T23:23:08.706Z,3.93
2022-10-18T23:28:12.155Z,4.30
2022-10-18T23:33:14.008Z,3.87
2022-10-18T23:38:16.202Z,3.70
2022-10-18T23:43:19.592Z,4.00
2022-10-18T23:48:21.580Z,3.40
2022-10-18T23:53:23.828Z,3.73
2022-10-18T23:58:28.521Z,3.83
